createdAt,value
2018-04-12T00:00:16.403Z,88.5
2018-04-12T00:01:16.453Z,88.5
2018-04-12T00:02:16.728Z,88.5
2018-04-12T00:03:16.994Z,88.8
2018-04-12T00:04:16.255Z,88.8
2018-04-12T00:05:16.520Z,88.8
2018-04-12T00:06:17.074Z,89.0
2018-04-12T00:07:16.339Z,89.2
2018-04-12T00:08:16.599Z,89.2
2018-04-12T00:09:16.859Z,89.2
2018-04-12T00:10:17.145Z,89.2
2018-04-12T00:11:17.174Z,89.0
2018-04-12T00:12:16.432Z,89.0
2018-04-12T00:13:16.702Z,89.0
2018-04-12T00:14:16.968Z,89.0
2018-04-12T00:15:17.413Z,89.0
2018-04-12T00:16:16.675Z,89.0
2018-04-12T00:17:16.940Z,89.0
2018-04-12T00:18:17.204Z,89.0
2018-04-12T00:19:16.472Z,89.0
2018-04-12T00:20:16.739Z,89.2
2018-04-12T00:21:16.786Z,89.0
2018-04-12T00:22:17.055Z,88.9
2018-04-12T00:23:16.315Z,89.2
2018-04-12T00:24:16.579Z,89.0
2018-04-12T00:25:16.844Z,89.0
2018-04-12T00:26:17.106Z,89.0
2018-04-12T00:27:16.366Z,89.0
2018-04-12T00:28:16.631Z,88.8
2018-04-12T00:29:16.894Z,88.8
2018-04-12T00:30:17.180Z,88.8
2018-04-12T00:31:17.201Z,88.7
2018-04-12T00:32:16.464Z,88.8
2018-04-12T00:33:16.730Z,88.6
2018-04-12T00:34:16.995Z,88.6
2018-04-12T00:35:16.262Z,88.8
2018-04-12T00:36:16.530Z,88.3
2018-04-12T00:37:16.791Z,87.8
2018-04-12T00:38:17.054Z,87.8
2018-04-12T00:39:16.326Z,87.8
2018-04-12T00:40:16.598Z,87.8
2018-04-12T00:41:16.637Z,87.8
2018-04-12T00:42:16.891Z,87.6
2018-04-12T00:43:17.162Z,87.6
2018-04-12T00:44:16.416Z,87.8
2018-04-12T00:45:16.677Z,87.0
2018-04-12T00:46:16.939Z,86.0
2018-04-12T00:47:17.211Z,85.0
2018-04-12T00:48:16.478Z,84.9
2018-04-12T00:49:16.734Z,84.7
2018-04-12T00:50:16.997Z,84.5
2018-04-12T00:51:17.050Z,84.0
2018-04-12T00:52:16.312Z,84.0
2018-04-12T00:53:16.572Z,83.7
2018-04-12T00:54:16.830Z,83.5
2018-04-12T00:55:17.100Z,83.2
2018-04-12T00:56:16.367Z,83.0
2018-04-12T00:57:16.620Z,83.0
2018-04-12T00:58:16.889Z,83.2
2018-04-12T00:59:17.149Z,82.5
2018-04-12T01:00:16.418Z,82.3
2018-04-12T01:01:16.457Z,82.0
2018-04-12T01:02:16.725Z,82.2
2018-04-12T01:03:17.002Z,82.0
2018-04-12T01:04:16.265Z,81.7
2018-04-12T01:05:16.525Z,81.8
2018-04-12T01:06:16.937Z,81.9
2018-04-12T01:07:17.197Z,81.6
2018-04-12T01:08:16.459Z,81.0
2018-04-12T01:09:16.714Z,81.0
2018-04-12T01:10:16.988Z,80.9
2018-04-12T01:11:17.035Z,80.6
2018-04-12T01:12:16.289Z,80.3
2018-04-12T01:13:16.555Z,79.3
2018-04-12T01:14:16.817Z,78.9
2018-04-12T01:15:17.322Z,79.0
2018-04-12T01:16:16.591Z,78.5
2018-04-12T01:17:16.857Z,78.2
2018-04-12T01:18:17.110Z,77.5
2018-04-12T01:19:16.367Z,76.3
2018-04-12T01:20:16.636Z,76.0
2018-04-12T01:21:16.670Z,75.2
2018-04-12T01:22:16.934Z,74.2
2018-04-12T01:23:17.191Z,73.8
2018-04-12T01:24:16.453Z,73.9
2018-04-12T01:25:16.717Z,73.3
2018-04-12T01:26:16.975Z,72.5
2018-04-12T01:27:17.236Z,72.2
2018-04-12T01:28:16.495Z,71.7
2018-04-12T01:29:16.752Z,71.0
2018-04-12T01:30:17.021Z,70.3
2018-04-12T01:31:17.057Z,69.8
2018-04-12T01:32:16.316Z,69.2
2018-04-12T01:33:16.579Z,68.8
2018-04-12T01:34:16.837Z,68.3
2018-04-12T01:35:17.105Z,68.2
2018-04-12T01:36:16.366Z,67.7
2018-04-12T01:37:16.627Z,67.1
2018-04-12T01:38:16.884Z,67.1
2018-04-12T01:39:17.156Z,66.5
2018-04-12T01:40:16.424Z,66.5
2018-04-12T01:41:16.454Z,66.0
2018-04-12T01:42:16.711Z,65.5
2018-04-12T01:43:16.972Z,65.6
2018-04-12T01:44:17.224Z,65.8
2018-04-12T01:45:16.494Z,65.3
2018-04-12T01:46:16.757Z,65.3
2018-04-12T01:47:17.023Z,65.2
2018-04-12T01:48:16.285Z,65.2
2018-04-12T01:49:16.545Z,64.7
2018-04-12T01:50:16.810Z,64.5
2018-04-12T01:51:16.858Z,64.6
2018-04-12T01:52:17.118Z,64.5
2018-04-12T01:53:16.493Z,64.6
2018-04-12T01:54:16.782Z,64.2
2018-04-12T01:55:17.040Z,64.3
2018-04-12T01:56:16.309Z,63.7
2018-04-12T01:57:16.564Z,63.6
2018-04-12T01:58:16.830Z,63.6
2018-04-12T01:59:17.098Z,63.7
2018-04-12T02:00:16.384Z,63.6
2018-04-12T02:01:16.414Z,63.2
2018-04-12T02:02:16.673Z,63.3
2018-04-12T02:03:16.940Z,63.1
2018-04-12T02:04:17.236Z,63.1
2018-04-12T02:05:16.504Z,63.2
2018-04-12T02:06:16.770Z,62.8
2018-04-12T02:07:16.767Z,62.9
2018-04-12T02:08:17.028Z,62.8
2018-04-12T02:09:16.291Z,62.5
2018-04-12T02:10:16.558Z,62.6
2018-04-12T02:11:16.609Z,62.5
2018-04-12T02:12:16.874Z,62.5
2018-04-12T02:13:17.128Z,62.5
2018-04-12T02:14:16.393Z,62.5
2018-04-12T02:15:16.660Z,62.7
2018-04-12T02:16:16.918Z,62.6
2018-04-12T02:17:17.180Z,62.4
2018-04-12T02:18:16.443Z,62.4
2018-04-12T02:19:16.706Z,62.5
2018-04-12T02:20:16.978Z,62.4
2018-04-12T02:21:17.031Z,62.4
2018-04-12T02:22:16.285Z,62.4
2018-04-12T02:23:16.544Z,62.3
2018-04-12T02:24:16.809Z,61.9
2018-04-12T02:25:17.070Z,61.8
2018-04-12T02:26:16.335Z,61.5
2018-04-12T02:27:16.595Z,62.0
2018-04-12T02:28:16.852Z,61.8
2018-04-12T02:29:17.109Z,61.7
2018-04-12T02:30:16.386Z,61.8
2018-04-12T02:31:16.432Z,62.0
2018-04-12T02:32:16.702Z,61.9
2018-04-12T02:33:17.296Z,62.0
2018-04-12T02:34:16.565Z,61.4
2018-04-12T02:35:16.843Z,62.0
2018-04-12T02:36:17.128Z,62.1
2018-04-12T02:37:16.399Z,62.0
2018-04-12T02:38:16.654Z,61.9
2018-04-12T02:39:16.909Z,61.9
2018-04-12T02:40:17.185Z,62.0
2018-04-12T02:41:17.233Z,61.8
2018-04-12T02:42:16.522Z,61.7
2018-04-12T02:43:16.790Z,61.4
2018-04-12T02:44:17.057Z,61.4
2018-04-12T02:45:16.317Z,61.0
2018-04-12T02:46:16.585Z,60.8
2018-04-12T02:47:16.849Z,60.6
2018-04-12T02:48:17.116Z,60.7
2018-04-12T02:49:16.388Z,60.6
2018-04-12T02:50:16.674Z,60.0
2018-04-12T02:51:16.724Z,60.0
2018-04-12T02:52:16.981Z,60.0
2018-04-12T02:53:17.254Z,60.0
2018-04-12T02:54:16.524Z,59.5
2018-04-12T02:55:16.790Z,59.4
2018-04-12T02:56:17.347Z,59.5
2018-04-12T02:57:16.612Z,59.2
2018-04-12T02:58:16.877Z,59.4
2018-04-12T02:59:17.137Z,59.4
2018-04-12T03:00:16.409Z,59.4
2018-04-12T03:01:16.466Z,58.8
2018-04-12T03:02:16.760Z,59.0
2018-04-12T03:03:17.019Z,59.0
2018-04-12T03:04:16.297Z,59.0
2018-04-12T03:05:16.568Z,59.0
2018-04-12T03:06:16.840Z,59.0
2018-04-12T03:07:17.110Z,59.0
2018-04-12T03:08:16.374Z,58.8
2018-04-12T03:09:16.649Z,58.9
2018-04-12T03:10:16.934Z,59.1
2018-04-12T03:11:16.946Z,58.9
2018-04-12T03:12:17.212Z,59.4
2018-04-12T03:13:16.473Z,59.3
2018-04-12T03:14:16.738Z,59.2
2018-04-12T03:15:17.000Z,59.3
2018-04-12T03:16:16.258Z,59.2
2018-04-12T03:17:16.518Z,59.0
2018-04-12T03:18:16.778Z,59.0
2018-04-12T03:19:17.030Z,59.0
2018-04-12T03:20:16.298Z,59.2
2018-04-12T03:21:16.335Z,59.2
2018-04-12T03:22:16.587Z,59.1
2018-04-12T03:23:16.843Z,59.2
2018-04-12T03:24:17.107Z,59.4
2018-04-12T03:25:16.372Z,59.0
2018-04-12T03:26:16.635Z,59.0
2018-04-12T03:27:16.909Z,59.0
2018-04-12T03:28:17.167Z,59.1
2018-04-12T03:29:16.427Z,59.1
2018-04-12T03:30:16.717Z,59.2
2018-04-12T03:31:16.752Z,59.2
2018-04-12T03:32:17.008Z,59.2
2018-04-12T03:33:16.543Z,59.2
2018-04-12T03:34:16.817Z,59.5
2018-04-12T03:35:17.086Z,59.4
2018-04-12T03:36:16.348Z,59.3
2018-04-12T03:37:16.609Z,59.1
2018-04-12T03:38:16.877Z,59.3
2018-04-12T03:39:17.143Z,59.2
2018-04-12T03:40:16.409Z,59.1
2018-04-12T03:41:16.437Z,59.0
2018-04-12T03:42:16.835Z,59.2
2018-04-12T03:43:17.163Z,59.2
2018-04-12T03:44:16.434Z,59.2
2018-04-12T03:45:16.698Z,59.2
2018-04-12T03:46:16.964Z,59.4
2018-04-12T03:47:17.225Z,59.2
2018-04-12T03:48:16.485Z,59.4
2018-04-12T03:49:16.858Z,59.4
2018-04-12T03:50:17.181Z,59.4
2018-04-12T03:51:17.172Z,59.4
2018-04-12T03:52:16.432Z,59.9
2018-04-12T03:53:16.703Z,60.0
2018-04-12T03:54:16.980Z,59.9
2018-04-12T03:55:17.242Z,59.9
2018-04-12T03:56:16.507Z,60.0
2018-04-12T03:57:16.769Z,60.0
2018-04-12T03:58:17.028Z,59.9
2018-04-12T03:59:16.288Z,60.0
2018-04-12T04:00:16.566Z,60.0
2018-04-12T04:01:16.613Z,60.1
2018-04-12T04:02:16.877Z,60.0
2018-04-12T04:03:17.455Z,60.0
2018-04-12T04:04:16.734Z,60.6
2018-04-12T04:05:17.000Z,60.5
2018-04-12T04:06:16.295Z,60.5
2018-04-12T04:07:16.557Z,60.5
2018-04-12T04:08:16.818Z,60.6
2018-04-12T04:09:17.084Z,60.9
2018-04-12T04:10:16.356Z,60.5
2018-04-12T04:11:16.409Z,60.5
2018-04-12T04:12:16.679Z,61.0
2018-04-12T04:13:16.937Z,61.1
2018-04-12T04:14:17.193Z,61.0
2018-04-12T04:15:16.446Z,61.1
2018-04-12T04:16:16.701Z,61.2
2018-04-12T04:17:16.966Z,61.1
2018-04-12T04:18:17.233Z,61.4
2018-04-12T04:19:16.503Z,61.5
2018-04-12T04:20:16.775Z,61.0
2018-04-12T04:21:16.813Z,60.9
2018-04-12T04:22:17.072Z,61.0
2018-04-12T04:23:16.326Z,61.0
2018-04-12T04:24:16.603Z,61.0
2018-04-12T04:25:16.884Z,60.5
2018-04-12T04:26:17.156Z,60.5
2018-04-12T04:27:16.425Z,60.5
2018-04-12T04:28:16.683Z,60.5
2018-04-12T04:29:16.948Z,60.5
2018-04-12T04:30:17.215Z,60.6
2018-04-12T04:31:16.253Z,60.3
2018-04-12T04:32:16.512Z,60.4
2018-04-12T04:33:16.771Z,60.0
2018-04-12T04:34:17.032Z,59.8
2018-04-12T04:35:16.291Z,59.7
2018-04-12T04:36:16.560Z,59.9
2018-04-12T04:37:16.831Z,59.5
2018-04-12T04:38:17.093Z,59.9
2018-04-12T04:39:16.355Z,59.8
2018-04-12T04:40:16.615Z,59.8
2018-04-12T04:41:16.662Z,59.9
2018-04-12T04:42:16.925Z,59.8
2018-04-12T04:43:17.187Z,59.8
2018-04-12T04:44:16.449Z,59.6
2018-04-12T04:45:16.714Z,59.8
2018-04-12T04:46:16.981Z,59.9
2018-04-12T04:47:17.251Z,59.6
2018-04-12T04:48:16.597Z,59.5
2018-04-12T04:49:16.887Z,59.6
2018-04-12T04:50:17.159Z,59.2
2018-04-12T04:51:17.202Z,59.2
2018-04-12T04:52:16.475Z,59.7
2018-04-12T04:53:16.736Z,59.3
2018-04-12T04:54:17.003Z,59.4
2018-04-12T04:55:16.264Z,59.0
2018-04-12T04:56:16.524Z,59.0
2018-04-12T04:57:16.776Z,59.0
2018-04-12T04:58:17.035Z,59.2
2018-04-12T04:59:16.297Z,59.3
2018-04-12T05:00:16.568Z,58.8
2018-04-12T05:01:16.610Z,58.9
2018-04-12T05:02:16.870Z,58.9
2018-04-12T05:03:17.131Z,58.8
2018-04-12T05:04:16.397Z,58.8
2018-04-12T05:05:16.676Z,58.8
2018-04-12T05:06:16.951Z,58.6
2018-04-12T05:07:17.280Z,58.8
2018-04-12T05:08:16.552Z,58.8
2018-04-12T05:09:16.806Z,58.9
2018-04-12T05:10:17.071Z,59.0
2018-04-12T05:11:17.106Z,58.9
2018-04-12T05:12:16.372Z,59.0
2018-04-12T05:13:16.645Z,59.0
2018-04-12T05:14:16.905Z,59.0
2018-04-12T05:15:17.182Z,59.0
2018-04-12T05:16:16.455Z,58.9
2018-04-12T05:17:16.711Z,59.0
2018-04-12T05:18:16.979Z,59.1
2018-04-12T05:19:17.243Z,59.1
2018-04-12T05:20:16.522Z,59.0
2018-04-12T05:21:16.563Z,59.0
2018-04-12T05:22:16.831Z,59.1
2018-04-12T05:23:17.097Z,59.0
2018-04-12T05:24:16.352Z,59.0
2018-04-12T05:25:16.620Z,59.1
2018-04-12T05:26:16.887Z,59.0
2018-04-12T05:27:17.149Z,59.0
2018-04-12T05:28:16.416Z,59.0
2018-04-12T05:29:16.672Z,59.1
2018-04-12T05:30:16.939Z,59.0
2018-04-12T05:31:16.994Z,59.0
2018-04-12T05:32:16.299Z,59.0
2018-04-12T05:33:16.569Z,59.1
2018-04-12T05:34:16.831Z,59.4
2018-04-12T05:35:17.113Z,59.1
2018-04-12T05:36:16.431Z,58.6
2018-04-12T05:37:16.700Z,58.5
2018-04-12T05:38:16.967Z,58.5
2018-04-12T05:39:17.228Z,58.6
2018-04-12T05:40:16.508Z,58.5
2018-04-12T05:41:16.566Z,58.5
2018-04-12T05:42:16.842Z,58.5
2018-04-12T05:43:17.103Z,58.7
2018-04-12T05:44:16.362Z,58.7
2018-04-12T05:45:16.619Z,58.6
2018-04-12T05:46:16.880Z,58.4
2018-04-12T05:47:17.146Z,58.2
2018-04-12T05:48:16.407Z,58.2
2018-04-12T05:49:16.644Z,58.1
2018-04-12T05:50:16.921Z,58.1
2018-04-12T05:51:16.952Z,58.0
2018-04-12T05:52:17.222Z,58.0
2018-04-12T05:53:16.488Z,57.9
2018-04-12T05:54:16.748Z,57.9
2018-04-12T05:55:17.011Z,57.9
2018-04-12T05:56:16.276Z,58.1
2018-04-12T05:57:16.543Z,58.0
2018-04-12T05:58:16.811Z,58.0
2018-04-12T05:59:17.073Z,58.0
2018-04-12T06:00:16.335Z,57.9
2018-04-12T06:01:16.388Z,58.0
2018-04-12T06:02:16.650Z,58.0
2018-04-12T06:03:16.913Z,58.0
2018-04-12T06:04:17.171Z,58.0
2018-04-12T06:05:16.434Z,58.0
2018-04-12T06:06:16.705Z,57.9
2018-04-12T06:07:16.970Z,57.8
2018-04-12T06:08:17.236Z,57.5
2018-04-12T06:09:16.497Z,57.5
2018-04-12T06:10:16.780Z,57.3
2018-04-12T06:11:16.795Z,57.2
2018-04-12T06:12:17.066Z,57.2
2018-04-12T06:13:16.327Z,57.2
2018-04-12T06:14:16.594Z,57.2
2018-04-12T06:15:16.858Z,57.4
2018-04-12T06:16:17.134Z,57.5
2018-04-12T06:17:16.390Z,57.1
2018-04-12T06:18:16.656Z,57.0
2018-04-12T06:19:16.938Z,57.0
2018-04-12T06:20:17.218Z,57.0
2018-04-12T06:21:16.265Z,57.1
2018-04-12T06:22:16.530Z,57.1
2018-04-12T06:23:16.795Z,57.3
2018-04-12T06:24:17.068Z,56.9
2018-04-12T06:25:16.328Z,56.9
2018-04-12T06:26:16.600Z,56.8
2018-04-12T06:27:16.878Z,56.7
2018-04-12T06:28:17.145Z,56.8
2018-04-12T06:29:16.406Z,56.8
2018-04-12T06:30:16.669Z,56.8
2018-04-12T06:31:16.721Z,56.8
2018-04-12T06:32:16.978Z,56.9
2018-04-12T06:33:17.236Z,56.7
2018-04-12T06:34:16.502Z,56.8
2018-04-12T06:35:16.765Z,56.8
2018-04-12T06:36:17.032Z,56.5
2018-04-12T06:37:16.295Z,56.0
2018-04-12T06:38:16.568Z,55.9
2018-04-12T06:39:16.836Z,56.2
2018-04-12T06:40:17.140Z,56.2
2018-04-12T06:41:17.165Z,56.0
2018-04-12T06:42:16.424Z,55.8
2018-04-12T06:43:16.681Z,55.9
2018-04-12T06:44:16.944Z,55.6
2018-04-12T06:45:17.203Z,55.7
2018-04-12T06:46:16.471Z,55.1
2018-04-12T06:47:16.734Z,55.0
2018-04-12T06:48:17.042Z,54.3
2018-04-12T06:49:16.314Z,54.2
2018-04-12T06:50:16.590Z,54.7
2018-04-12T06:51:16.629Z,53.8
2018-04-12T06:52:16.896Z,53.7
2018-04-12T06:53:17.165Z,53.8
2018-04-12T06:54:16.427Z,53.7
2018-04-12T06:55:16.694Z,53.7
2018-04-12T06:56:16.968Z,53.4
2018-04-12T06:57:17.236Z,52.9
2018-04-12T06:58:16.491Z,52.6
2018-04-12T06:59:16.752Z,52.9
2018-04-12T07:00:17.032Z,53.0
2018-04-12T07:01:17.068Z,52.9
2018-04-12T07:02:16.332Z,52.4
2018-04-12T07:03:16.590Z,52.6
2018-04-12T07:04:16.853Z,51.9
2018-04-12T07:05:17.114Z,50.4
2018-04-12T07:06:16.370Z,49.5
2018-04-12T07:07:16.647Z,49.3
2018-04-12T07:08:16.910Z,48.0
2018-04-12T07:09:17.176Z,48.6
2018-04-12T07:10:16.433Z,47.1
2018-04-12T07:11:16.487Z,47.7
2018-04-12T07:12:16.752Z,48.3
2018-04-12T07:13:17.010Z,46.8
2018-04-12T07:14:16.277Z,46.1
2018-04-12T07:15:16.541Z,45.8
2018-04-12T07:16:16.806Z,47.4
2018-04-12T07:17:17.071Z,46.7
2018-04-12T07:18:16.341Z,47.0
2018-04-12T07:19:16.642Z,46.7
2018-04-12T07:20:16.925Z,46.1
2018-04-12T07:21:16.982Z,45.5
2018-04-12T07:22:17.237Z,45.9
2018-04-12T07:23:16.513Z,44.8
2018-04-12T07:24:16.788Z,44.2
2018-04-12T07:25:17.057Z,43.5
2018-04-12T07:26:16.311Z,42.8
2018-04-12T07:27:16.576Z,44.0
2018-04-12T07:28:16.840Z,42.4
2018-04-12T07:29:17.101Z,41.6
2018-04-12T07:30:16.362Z,41.6
2018-04-12T07:31:16.420Z,41.8
2018-04-12T07:32:16.689Z,41.1
2018-04-12T07:33:16.952Z,40.2
2018-04-12T07:34:17.213Z,40.4
2018-04-12T07:35:16.477Z,39.8
2018-04-12T07:36:17.004Z,39.2
2018-04-12T07:37:16.267Z,39.1
2018-04-12T07:38:16.529Z,39.1
2018-04-12T07:39:16.792Z,38.1
2018-04-12T07:40:17.070Z,39.0
2018-04-12T07:41:17.093Z,39.0
2018-04-12T07:42:16.354Z,37.9
2018-04-12T07:43:16.612Z,38.5
2018-04-12T07:44:16.878Z,37.1
2018-04-12T07:45:17.151Z,39.1
2018-04-12T07:46:16.414Z,37.8
2018-04-12T07:47:16.675Z,37.5
2018-04-12T07:48:16.943Z,36.5
2018-04-12T07:49:17.219Z,38.0
2018-04-12T07:50:16.505Z,37.3
2018-04-12T07:51:16.518Z,36.2
2018-04-12T07:52:16.778Z,37.9
2018-04-12T07:53:17.060Z,36.9
2018-04-12T07:54:16.331Z,36.0
2018-04-12T07:55:16.597Z,35.5
2018-04-12T07:56:16.852Z,35.0
2018-04-12T07:57:17.106Z,34.7
2018-04-12T07:58:16.369Z,35.2
2018-04-12T07:59:16.634Z,34.2
2018-04-12T08:00:16.902Z,34.1
2018-04-12T08:01:16.949Z,35.2
2018-04-12T08:02:17.216Z,35.0
2018-04-12T08:03:16.482Z,34.6
2018-04-12T08:04:16.741Z,34.4
2018-04-12T08:05:17.379Z,34.3
2018-04-12T08:06:16.647Z,33.7
2018-04-12T08:07:16.917Z,33.6
2018-04-12T08:08:17.183Z,34.4
2018-04-12T08:09:16.445Z,35.0
2018-04-12T08:10:16.713Z,34.6
2018-04-12T08:11:16.765Z,33.6
2018-04-12T08:12:17.028Z,33.6
2018-04-12T08:13:16.285Z,33.1
2018-04-12T08:14:16.551Z,34.3
2018-04-12T08:15:16.815Z,34.0
2018-04-12T08:16:17.103Z,33.6
2018-04-12T08:17:16.371Z,33.5
2018-04-12T08:18:16.640Z,34.2
2018-04-12T08:19:16.910Z,33.4
2018-04-12T08:20:17.173Z,32.3
2018-04-12T08:21:17.200Z,31.9
2018-04-12T08:22:16.458Z,31.6
2018-04-12T08:23:16.719Z,33.6
2018-04-12T08:24:16.992Z,33.2
2018-04-12T08:25:16.268Z,32.7
2018-04-12T08:26:16.526Z,32.9
2018-04-12T08:27:16.782Z,32.3
2018-04-12T08:28:17.041Z,31.1
2018-04-12T08:29:16.304Z,30.6
2018-04-12T08:30:16.574Z,30.2
2018-04-12T08:31:16.626Z,31.1
2018-04-12T08:32:16.885Z,31.8
2018-04-12T08:33:17.153Z,30.7
2018-04-12T08:34:16.420Z,31.0
2018-04-12T08:35:16.687Z,30.8
2018-04-12T08:36:16.950Z,30.2
2018-04-12T08:37:17.481Z,30.9
2018-04-12T08:38:16.747Z,31.0
2018-04-12T08:39:17.008Z,30.4
2018-04-12T08:40:16.268Z,30.0
2018-04-12T08:41:16.313Z,32.1
2018-04-12T08:42:16.583Z,32.4
2018-04-12T08:43:16.852Z,29.6
2018-04-12T08:44:17.125Z,29.9
2018-04-12T08:45:16.386Z,29.2
2018-04-12T08:46:16.654Z,28.4
2018-04-12T08:47:16.915Z,28.3
2018-04-12T08:48:17.192Z,28.1
2018-04-12T08:49:16.469Z,28.8
2018-04-12T08:50:16.737Z,28.4
2018-04-12T08:51:16.782Z,28.4
2018-04-12T08:52:17.043Z,30.2
2018-04-12T08:53:16.293Z,29.8
2018-04-12T08:54:16.553Z,28.3
2018-04-12T08:55:16.832Z,27.8
2018-04-12T08:56:17.102Z,27.0
2018-04-12T08:57:16.362Z,28.2
2018-04-12T08:58:16.633Z,26.9
2018-04-12T08:59:16.907Z,27.1
2018-04-12T09:00:17.177Z,27.6
2018-04-12T09:01:17.277Z,26.3
2018-04-12T09:02:16.546Z,26.2
2018-04-12T09:03:16.803Z,26.1
2018-04-12T09:04:17.064Z,26.0
2018-04-12T09:05:16.339Z,26.2
2018-04-12T09:06:16.608Z,26.9
2018-04-12T09:07:16.871Z,27.6
2018-04-12T09:08:17.134Z,27.0
2018-04-12T09:09:16.392Z,26.8
2018-04-12T09:10:16.663Z,27.9
2018-04-12T09:11:16.711Z,26.9
2018-04-12T09:12:17.102Z,26.1
2018-04-12T09:13:16.432Z,25.6
2018-04-12T09:14:16.689Z,26.6
2018-04-12T09:15:16.955Z,26.4
2018-04-12T09:16:17.221Z,25.9
2018-04-12T09:17:16.484Z,25.6
2018-04-12T09:18:16.757Z,26.2
2018-04-12T09:19:17.033Z,26.4
2018-04-12T09:20:16.303Z,26.8
2018-04-12T09:21:16.345Z,26.4
2018-04-12T09:22:16.617Z,25.6
2018-04-12T09:23:16.881Z,26.2
2018-04-12T09:24:17.145Z,24.6
2018-04-12T09:25:16.404Z,23.6
2018-04-12T09:26:16.671Z,25.1
2018-04-12T09:27:16.929Z,23.8
2018-04-12T09:28:17.206Z,22.5
2018-04-12T09:29:16.477Z,23.7
2018-04-12T09:30:16.757Z,23.1
2018-04-12T09:31:16.781Z,23.1
2018-04-12T09:32:17.050Z,22.8
2018-04-12T09:33:16.361Z,22.6
2018-04-12T09:34:16.673Z,22.8
2018-04-12T09:35:16.940Z,22.6
2018-04-12T09:36:17.215Z,22.2
2018-04-12T09:37:16.487Z,22.8
2018-04-12T09:38:16.748Z,23.4
2018-04-12T09:39:17.013Z,23.0
2018-04-12T09:40:16.276Z,22.7
2018-04-12T09:41:16.412Z,22.3
2018-04-12T09:42:16.684Z,23.9
2018-04-12T09:43:16.947Z,24.4
2018-04-12T09:44:17.218Z,22.9
2018-04-12T09:45:16.484Z,22.4
2018-04-12T09:46:17.052Z,22.8
2018-04-12T09:47:16.317Z,22.9
2018-04-12T09:48:16.586Z,23.7
2018-04-12T09:49:17.009Z,22.6
2018-04-12T09:50:16.346Z,22.5
2018-04-12T09:51:16.399Z,23.5
2018-04-12T09:52:16.712Z,24.3
2018-04-12T09:53:16.976Z,23.5
2018-04-12T09:54:17.235Z,23.7
2018-04-12T09:55:16.490Z,23.9
2018-04-12T09:56:16.750Z,23.8
2018-04-12T09:57:17.005Z,23.0
2018-04-12T09:58:16.260Z,22.9
2018-04-12T09:59:16.521Z,22.6
2018-04-12T10:00:16.798Z,23.8
2018-04-12T10:01:16.850Z,23.3
2018-04-12T10:02:17.115Z,24.0
2018-04-12T10:03:16.370Z,23.6
2018-04-12T10:04:16.642Z,23.9
2018-04-12T10:05:16.903Z,24.1
2018-04-12T10:06:17.166Z,23.8
2018-04-12T10:07:16.431Z,22.6
2018-04-12T10:08:16.691Z,23.1
2018-04-12T10:09:16.957Z,23.1
2018-04-12T10:10:17.226Z,22.6
2018-04-12T10:11:16.277Z,23.5
2018-04-12T10:12:16.540Z,23.2
2018-04-12T10:13:16.803Z,23.7
2018-04-12T10:14:17.055Z,24.4
2018-04-12T10:15:16.319Z,22.8
2018-04-12T10:16:16.579Z,23.8
2018-04-12T10:17:16.840Z,23.8
2018-04-12T10:18:17.107Z,23.7
2018-04-12T10:19:16.367Z,23.8
2018-04-12T10:20:16.628Z,23.6
2018-04-12T10:21:16.673Z,22.4
2018-04-12T10:22:16.936Z,22.5
2018-04-12T10:23:17.203Z,24.3
2018-04-12T10:24:16.475Z,24.9
2018-04-12T10:25:16.742Z,23.9
2018-04-12T10:26:17.003Z,23.8
2018-04-12T10:27:16.265Z,23.2
2018-04-12T10:28:16.526Z,23.1
2018-04-12T10:29:16.797Z,23.4
2018-04-12T10:30:17.068Z,22.9
2018-04-12T10:31:17.109Z,22.2
2018-04-12T10:32:16.373Z,23.1
2018-04-12T10:33:16.631Z,23.6
2018-04-12T10:34:16.892Z,23.9
2018-04-12T10:35:17.158Z,24.4
2018-04-12T10:36:16.423Z,23.4
2018-04-12T10:37:16.689Z,23.6
2018-04-12T10:38:16.949Z,24.6
2018-04-12T10:39:17.264Z,24.1
2018-04-12T10:40:16.752Z,24.1
2018-04-12T10:41:16.602Z,24.7
2018-04-12T10:42:16.868Z,25.6
2018-04-12T10:43:17.129Z,25.9
2018-04-12T10:44:16.403Z,26.0
2018-04-12T10:45:16.673Z,25.4
2018-04-12T10:46:16.944Z,25.9
2018-04-12T10:47:17.198Z,26.1
2018-04-12T10:48:16.457Z,25.3
2018-04-12T10:49:16.709Z,25.6
2018-04-12T10:50:17.000Z,25.2
2018-04-12T10:51:17.029Z,24.9
2018-04-12T10:52:16.296Z,24.8
2018-04-12T10:53:16.561Z,24.6
2018-04-12T10:54:16.825Z,24.9
2018-04-12T10:55:17.100Z,25.0
2018-04-12T10:56:16.372Z,25.4
2018-04-12T10:57:16.642Z,25.4
2018-04-12T10:58:16.900Z,25.2
2018-04-12T10:59:17.169Z,25.8
2018-04-12T11:00:16.434Z,25.6
2018-04-12T11:01:16.483Z,25.6
2018-04-12T11:02:16.749Z,25.4
2018-04-12T11:03:17.003Z,25.6
2018-04-12T11:04:16.265Z,25.3
2018-04-12T11:05:16.533Z,26.2
2018-04-12T11:06:16.792Z,25.8
2018-04-12T11:07:17.059Z,25.1
2018-04-12T11:08:16.317Z,24.9
2018-04-12T11:09:16.576Z,24.6
2018-04-12T11:10:16.841Z,25.7
2018-04-12T11:11:16.905Z,25.6
2018-04-12T11:12:17.239Z,24.3
2018-04-12T11:13:16.508Z,24.3
2018-04-12T11:14:16.782Z,24.2
2018-04-12T11:15:17.046Z,23.6
2018-04-12T11:16:16.304Z,24.3
2018-04-12T11:17:16.581Z,24.4
2018-04-12T11:18:16.924Z,24.7
2018-04-12T11:19:16.254Z,24.8
2018-04-12T11:20:16.525Z,24.9
2018-04-12T11:21:16.623Z,23.9
2018-04-12T11:22:16.926Z,25.4
2018-04-12T11:23:17.189Z,24.9
2018-04-12T11:24:16.580Z,24.6
2018-04-12T11:25:16.930Z,24.9
2018-04-12T11:26:17.221Z,24.6
2018-04-12T11:27:16.498Z,24.7
2018-04-12T11:28:16.765Z,24.8
2018-04-12T11:29:17.080Z,24.7
2018-04-12T11:30:16.360Z,23.7
2018-04-12T11:31:16.409Z,23.6
2018-04-12T11:32:16.667Z,23.8
2018-04-12T11:33:16.927Z,23.8
2018-04-12T11:34:17.304Z,23.8
2018-04-12T11:35:16.601Z,24.4
2018-04-12T11:36:16.859Z,24.6
2018-04-12T11:37:17.117Z,25.4
2018-04-12T11:38:16.373Z,24.7
2018-04-12T11:39:16.633Z,24.8
2018-04-12T11:40:16.898Z,25.1
2018-04-12T11:41:16.946Z,24.6
2018-04-12T11:42:17.210Z,24.2
2018-04-12T11:43:16.464Z,24.9
2018-04-12T11:44:16.732Z,25.1
2018-04-12T11:45:17.058Z,25.4
2018-04-12T11:46:16.350Z,24.4
2018-04-12T11:47:16.615Z,24.2
2018-04-12T11:48:16.875Z,24.8
2018-04-12T11:49:17.148Z,25.4
2018-04-12T11:50:16.425Z,25.6
2018-04-12T11:51:16.449Z,25.7
2018-04-12T11:52:16.708Z,25.5
2018-04-12T11:53:16.967Z,24.9
2018-04-12T11:54:17.224Z,25.2
2018-04-12T11:55:16.483Z,24.9
2018-04-12T11:56:16.746Z,25.4
2018-04-12T11:57:17.016Z,25.6
2018-04-12T11:58:16.279Z,25.1
2018-04-12T11:59:16.552Z,24.9
2018-04-12T12:00:16.830Z,24.9
2018-04-12T12:01:16.863Z,25.2
2018-04-12T12:02:17.216Z,25.6
2018-04-12T12:03:16.491Z,26.2
2018-04-12T12:04:16.760Z,25.7
2018-04-12T12:05:17.035Z,25.9
2018-04-12T12:06:16.299Z,26.1
2018-04-12T12:07:16.563Z,26.6
2018-04-12T12:08:16.840Z,25.4
2018-04-12T12:09:17.094Z,25.1
2018-04-12T12:10:16.365Z,25.4
2018-04-12T12:11:16.444Z,25.9
2018-04-12T12:12:16.714Z,26.4
2018-04-12T12:13:16.976Z,25.6
2018-04-12T12:14:17.235Z,25.7
2018-04-12T12:15:16.498Z,25.4
2018-04-12T12:16:16.759Z,25.8
2018-04-12T12:17:17.025Z,25.4
2018-04-12T12:18:16.286Z,26.2
2018-04-12T12:19:16.553Z,24.9
2018-04-12T12:20:16.811Z,24.8
2018-04-12T12:21:16.867Z,24.6
2018-04-12T12:22:17.124Z,24.3
2018-04-12T12:23:16.388Z,25.3
2018-04-12T12:24:16.650Z,24.3
2018-04-12T12:25:16.909Z,25.3
2018-04-12T12:26:17.174Z,24.8
2018-04-12T12:27:16.438Z,25.4
2018-04-12T12:28:16.705Z,25.4
2018-04-12T12:29:16.972Z,25.2
2018-04-12T12:30:17.242Z,25.8
2018-04-12T12:31:16.287Z,25.6
2018-04-12T12:32:16.555Z,25.4
2018-04-12T12:33:16.816Z,25.2
2018-04-12T12:34:17.081Z,25.4
2018-04-12T12:35:16.341Z,25.4
2018-04-12T12:36:16.603Z,25.9
2018-04-12T12:37:16.867Z,25.5
2018-04-12T12:38:17.190Z,25.5
2018-04-12T12:39:16.448Z,25.0
2018-04-12T12:40:16.712Z,25.2
2018-04-12T12:41:16.762Z,25.2
2018-04-12T12:42:17.024Z,25.6
2018-04-12T12:43:16.292Z,25.9
2018-04-12T12:44:16.556Z,25.2
2018-04-12T12:45:16.821Z,24.9
2018-04-12T12:46:17.083Z,25.2
2018-04-12T12:47:16.348Z,25.1
2018-04-12T12:48:16.616Z,24.9
2018-04-12T12:49:16.923Z,25.6
2018-04-12T12:50:17.185Z,25.6
2018-04-12T12:51:17.411Z,25.4
2018-04-12T12:52:16.673Z,24.9
2018-04-12T12:53:16.934Z,25.2
2018-04-12T12:54:17.204Z,24.9
2018-04-12T12:55:16.485Z,24.9
2018-04-12T12:56:16.750Z,25.4
2018-04-12T12:57:17.039Z,25.4
2018-04-12T12:58:16.302Z,25.5
2018-04-12T12:59:16.567Z,25.3
2018-04-12T13:00:16.829Z,25.2
2018-04-12T13:01:16.904Z,25.1
2018-04-12T13:02:17.175Z,25.6
2018-04-12T13:03:16.442Z,25.4
2018-04-12T13:04:16.722Z,24.9
2018-04-12T13:05:16.987Z,25.4
2018-04-12T13:06:17.265Z,26.2
2018-04-12T13:07:16.560Z,25.2
2018-04-12T13:08:16.820Z,25.2
2018-04-12T13:09:17.085Z,25.2
2018-04-12T13:10:16.354Z,25.4
2018-04-12T13:11:16.400Z,25.6
2018-04-12T13:12:16.669Z,25.6
2018-04-12T13:13:16.928Z,25.3
2018-04-12T13:14:17.462Z,25.1
2018-04-12T13:15:16.728Z,24.9
2018-04-12T13:16:16.993Z,25.7
2018-04-12T13:17:17.255Z,25.3
2018-04-12T13:18:16.517Z,25.6